sensor_id;sensor_type;location;lat;lon;timestamp;pressure;altitude;pressure_sealevel;temperature;humidity
32330;BME280;18807;52.434;13.238;2022-08-07T00:04:01;102231.81;;;15.27;73.27
32330;BME280;18807;52.434;13.238;2022-08-07T00:11:38;102223.63;;;15.21;73.49
32330;BME280;18807;52.434;13.238;2022-08-07T00:19:28;102231.56;;;15.15;75.36
32330;BME280;18807;52.434;13.238;2022-08-07T00:27:24;102233.22;;;15.07;75.77
32330;BME280;18807;52.434;13.238;2022-08-07T00:35:08;102226.72;;;14.97;76.75
32330;BME280;18807;52.434;13.238;2022-08-07T00:42:43;102220.25;;;14.86;77.16
32330;BME280;18807;52.434;13.238;2022-08-07T00:50:21;102215.72;;;14.85;77.95
32330;BME280;18807;52.434;13.238;2022-08-07T00:58:19;102221.84;;;14.78;78.92
32330;BME280;18807;52.434;13.238;2022-08-07T01:05:54;102229.75;;;14.71;79.27
32330;BME280;18807;52.434;13.238;2022-08-07T01:13:30;102220.63;;;14.63;80.56
32330;BME280;18807;52.434;13.238;2022-08-07T01:21:10;102222.16;;;14.52;80.67
32330;BME280;18807;52.434;13.238;2022-08-07T01:28:54;102220.34;;;14.51;83.80
32330;BME280;18807;52.434;13.238;2022-08-07T01:36:30;102218.28;;;14.39;90.25
32330;BME280;18807;52.434;13.238;2022-08-07T01:44:08;102210.00;;;14.30;89.30
32330;BME280;18807;52.434;13.238;2022-08-07T01:51:46;102218.00;;;14.26;89.96
32330;BME280;18807;52.434;13.238;2022-08-07T01:59:41;102223.91;;;14.14;89.87
32330;BME280;18807;52.434;13.238;2022-08-07T02:07:19;102227.41;;;14.10;89.05
32330;BME280;18807;52.434;13.238;2022-08-07T02:15:08;102215.59;;;14.03;89.42
32330;BME280;18807;52.434;13.238;2022-08-07T02:22:45;102208.28;;;13.96;89.85
32330;BME280;18807;52.434;13.238;2022-08-07T02:30:27;102214.53;;;13.95;94.01
32330;BME280;18807;52.434;13.238;2022-08-07T02:38:04;102217.59;;;13.75;94.08
32330;BME280;18807;52.434;13.238;2022-08-07T02:45:44;102209.41;;;13.70;90.52
32330;BME280;18807;52.434;13.238;2022-08-07T02:53:34;102212.09;;;13.70;90.48
32330;BME280;18807;52.434;13.238;2022-08-07T03:01:11;102211.97;;;13.66;90.89
32330;BME280;18807;52.434;13.238;2022-08-07T03:08:52;102215.44;;;13.62;94.09
32330;BME280;18807;52.434;13.238;2022-08-07T03:16:29;102217.94;;;13.54;95.16
32330;BME280;18807;52.434;13.238;2022-08-07T03:24:05;102218.59;;;13.46;97.22
32330;BME280;18807;52.434;13.238;2022-08-07T03:31:56;102223.84;;;13.41;96.08
32330;BME280;18807;52.434;13.238;2022-08-07T03:39:33;102228.22;;;13.38;95.04
32330;BME280;18807;52.434;13.238;2022-08-07T03:47:28;102231.72;;;13.35;97.22
32330;BME280;18807;52.434;13.238;2022-08-07T03:55:24;102236.06;;;13.30;98.89
32330;BME280;18807;52.434;13.238;2022-08-07T04:03:18;102236.78;;;13.25;100.00
32330;BME280;18807;52.434;13.238;2022-08-07T04:10:54;102241.28;;;13.24;100.00
32330;BME280;18807;52.434;13.238;2022-08-07T04:18:49;102240.31;;;13.22;100.00
32330;BME280;18807;52.434;13.238;2022-08-07T04:26:34;102237.53;;;13.19;100.00
32330;BME280;18807;52.434;13.238;2022-08-07T04:34:08;102240.22;;;13.19;100.00
32330;BME280;18807;52.434;13.238;2022-08-07T04:41:49;102237.72;;;13.25;100.00
32330;BME280;18807;52.434;13.238;2022-08-07T04:49:29;102248.69;;;13.34;100.00
32330;BME280;18807;52.434;13.238;2022-08-07T04:57:16;102251.47;;;13.37;100.00
32330;BME280;18807;52.434;13.238;2022-08-07T05:05:20;102248.00;;;13.41;100.00
32330;BME280;18807;52.434;13.238;2022-08-07T05:13:21;102245.66;;;13.53;100.00
32330;BME280;18807;52.434;13.238;2022-08-07T05:21:22;102246.06;;;13.68;96.75
32330;BME280;18807;52.434;13.238;2022-08-07T05:29:20;102257.28;;;13.86;94.86
32330;BME280;18807;52.434;13.238;2022-08-07T05:37:12;102238.34;;;14.18;90.74
32330;BME280;18807;52.434;13.238;2022-08-07T05:44:57;102256.38;;;14.59;84.59
32330;BME280;18807;52.434;13.238;2022-08-07T05:52:46;102254.84;;;15.11;77.28
32330;BME280;18807;52.434;13.238;2022-08-07T06:00:21;102265.31;;;15.39;74.27
32330;BME280;18807;52.434;13.238;2022-08-07T06:07:58;102266.03;;;15.77;70.07
32330;BME280;18807;52.434;13.238;2022-08-07T06:15:54;102256.19;;;16.31;66.72
32330;BME280;18807;52.434;13.238;2022-08-07T06:23:30;102268.00;;;16.39;65.16
32330;BME280;18807;52.434;13.238;2022-08-07T06:31:25;102263.84;;;16.61;63.71
32330;BME280;18807;52.434;13.238;2022-08-07T06:39:20;102273.66;;;17.20;58.86
32330;BME280;18807;52.434;13.238;2022-08-07T06:47:15;102281.22;;;17.46;58.41
32330;BME280;18807;52.434;13.238;2022-08-07T06:54:52;102269.00;;;17.83;55.34
32330;BME280;18807;52.434;13.238;2022-08-07T07:02:49;102260.06;;;17.93;54.62
32330;BME280;18807;52.434;13.238;2022-08-07T07:10:31;102269.13;;;17.98;54.30
32330;BME280;18807;52.434;13.238;2022-08-07T07:18:13;102275.78;;;18.36;52.74
32330;BME280;18807;52.434;13.238;2022-08-07T07:26:10;102270.66;;;18.81;50.57
32330;BME280;18807;52.434;13.238;2022-08-07T07:34:09;102263.66;;;19.18;48.67
32330;BME280;18807;52.434;13.238;2022-08-07T07:41:49;102260.97;;;19.24;50.50
32330;BME280;18807;52.434;13.238;2022-08-07T07:49:46;102249.31;;;19.41;48.43
32330;BME280;18807;52.434;13.238;2022-08-07T07:57:41;102243.03;;;19.65;48.24
32330;BME280;18807;52.434;13.238;2022-08-07T08:05:27;102230.38;;;20.05;47.10
32330;BME280;18807;52.434;13.238;2022-08-07T08:13:14;102231.28;;;20.53;46.23
32330;BME280;18807;52.434;13.238;2022-08-07T08:20:52;102223.94;;;20.85;45.33
32330;BME280;18807;52.434;13.238;2022-08-07T08:28:28;102217.56;;;20.98;43.43
32330;BME280;18807;52.434;13.238;2022-08-07T08:36:12;102218.94;;;21.73;43.69
32330;BME280;18807;52.434;13.238;2022-08-07T08:43:55;102221.03;;;21.29;41.96
32330;BME280;18807;52.434;13.238;2022-08-07T08:51:35;102203.50;;;21.78;43.18
32330;BME280;18807;52.434;13.238;2022-08-07T08:59:36;102194.28;;;22.83;40.77
32330;BME280;18807;52.434;13.238;2022-08-07T09:07:28;102201.25;;;22.30;39.39
32330;BME280;18807;52.434;13.238;2022-08-07T09:15:29;102198.00;;;22.78;41.66
32330;BME280;18807;52.434;13.238;2022-08-07T09:23:31;102194.00;;;23.70;36.84
32330;BME280;18807;52.434;13.238;2022-08-07T09:31:32;102186.88;;;24.16;38.28
32330;BME280;18807;52.434;13.238;2022-08-07T09:39:38;102173.41;;;23.49;36.33
32330;BME280;18807;52.434;13.238;2022-08-07T09:47:32;102166.66;;;23.12;38.22
32330;BME280;18807;52.434;13.238;2022-08-07T09:55:44;102157.75;;;23.01;38.67
32330;BME280;18807;52.434;13.238;2022-08-07T10:03:55;102158.00;;;22.81;38.59
32330;BME280;18807;52.434;13.238;2022-08-07T10:11:58;102145.56;;;22.59;38.72
32330;BME280;18807;52.434;13.238;2022-08-07T10:19:59;102143.78;;;22.55;38.26
32330;BME280;18807;52.434;13.238;2022-08-07T10:27:56;102132.25;;;22.31;39.33
32330;BME280;18807;52.434;13.238;2022-08-07T10:35:48;102128.72;;;22.20;39.16
32330;BME280;18807;52.434;13.238;2022-08-07T10:43:54;102115.09;;;22.21;40.96
32330;BME280;18807;52.434;13.238;2022-08-07T10:51:50;102111.41;;;22.28;40.98
32330;BME280;18807;52.434;13.238;2022-08-07T11:00:02;102097.72;;;22.34;40.11
32330;BME280;18807;52.434;13.238;2022-08-07T11:07:42;102084.84;;;22.47;38.03
32330;BME280;18807;52.434;13.238;2022-08-07T11:15:34;102071.59;;;22.86;38.21
32330;BME280;18807;52.434;13.238;2022-08-07T11:23:17;102056.09;;;22.91;35.59
32330;BME280;18807;52.434;13.238;2022-08-07T11:31:21;102051.84;;;23.31;35.90
32330;BME280;18807;52.434;13.238;2022-08-07T11:39:05;102050.41;;;23.61;35.81
32330;BME280;18807;52.434;13.238;2022-08-07T11:46:57;102045.72;;;23.71;35.74
32330;BME280;18807;52.434;13.238;2022-08-07T11:54:45;102036.63;;;23.70;34.10
32330;BME280;18807;52.434;13.238;2022-08-07T12:02:41;102038.91;;;23.44;34.26
32330;BME280;18807;52.434;13.238;2022-08-07T12:10:30;102023.84;;;23.72;35.06
32330;BME280;18807;52.434;13.238;2022-08-07T12:18:21;102022.00;;;23.73;34.12
32330;BME280;18807;52.434;13.238;2022-08-07T12:26:03;102006.50;;;23.75;35.12
32330;BME280;18807;52.434;13.238;2022-08-07T12:34:00;102004.44;;;23.38;34.11
32330;BME280;18807;52.434;13.238;2022-08-07T12:41:42;102003.50;;;23.41;34.17
32330;BME280;18807;52.434;13.238;2022-08-07T12:49:32;101994.53;;;23.33;35.52
32330;BME280;18807;52.434;13.238;2022-08-07T12:57:27;101999.09;;;23.32;35.87
32330;BME280;18807;52.434;13.238;2022-08-07T13:05:37;101985.84;;;23.08;35.54
32330;BME280;18807;52.434;13.238;2022-08-07T13:13:50;101984.78;;;23.18;35.26
32330;BME280;18807;52.434;13.238;2022-08-07T13:21:33;101976.66;;;23.14;35.34
32330;BME280;18807;52.434;13.238;2022-08-07T13:29:35;101960.34;;;23.12;35.88
32330;BME280;18807;52.434;13.238;2022-08-07T13:37:26;101957.66;;;23.09;35.77
32330;BME280;18807;52.434;13.238;2022-08-07T13:45:04;101943.94;;;23.14;37.02
32330;BME280;18807;52.434;13.238;2022-08-07T13:53:01;101935.34;;;23.39;34.68
32330;BME280;18807;52.434;13.238;2022-08-07T14:00:36;101923.88;;;23.65;33.89
32330;BME280;18807;52.434;13.238;2022-08-07T14:08:27;101909.84;;;23.85;33.00
32330;BME280;18807;52.434;13.238;2022-08-07T14:16:04;101903.00;;;24.07;33.60
32330;BME280;18807;52.434;13.238;2022-08-07T14:23:53;101899.81;;;24.28;32.96
32330;BME280;18807;52.434;13.238;2022-08-07T14:31:33;101888.78;;;25.05;33.40
32330;BME280;18807;52.434;13.238;2022-08-07T14:39:17;101879.53;;;25.43;31.79
32330;BME280;18807;52.434;13.238;2022-08-07T14:47:12;101879.13;;;25.24;32.10
32330;BME280;18807;52.434;13.238;2022-08-07T14:54:50;101878.84;;;25.67;31.38
32330;BME280;18807;52.434;13.238;2022-08-07T15:02:26;101879.41;;;25.80;30.87
32330;BME280;18807;52.434;13.238;2022-08-07T15:10:22;101876.22;;;25.95;30.94
32330;BME280;18807;52.434;13.238;2022-08-07T15:18:19;101870.03;;;26.17;30.55
32330;BME280;18807;52.434;13.238;2022-08-07T15:26:08;101863.88;;;26.38;29.76
32330;BME280;18807;52.434;13.238;2022-08-07T15:33:57;101858.94;;;25.62;30.02
32330;BME280;18807;52.434;13.238;2022-08-07T15:42:00;101858.91;;;25.93;30.93
32330;BME280;18807;52.434;13.238;2022-08-07T15:49:55;101853.88;;;26.08;30.29
32330;BME280;18807;52.434;13.238;2022-08-07T15:57:42;101850.44;;;25.71;31.66
32330;BME280;18807;52.434;13.238;2022-08-07T16:05:21;101842.69;;;26.43;30.59
32330;BME280;18807;52.434;13.238;2022-08-07T16:13:26;101842.06;;;26.63;30.13
32330;BME280;18807;52.434;13.238;2022-08-07T16:21:33;101834.03;;;26.83;28.53
32330;BME280;18807;52.434;13.238;2022-08-07T16:38:15;101827.69;;;27.07;29.35
32330;BME280;18807;52.434;13.238;2022-08-07T16:54:47;101836.31;;;26.43;29.10
32330;BME280;18807;52.434;13.238;2022-08-07T17:02:53;101834.66;;;26.10;30.01
32330;BME280;18807;52.434;13.238;2022-08-07T17:10:43;101830.63;;;25.63;31.03
32330;BME280;18807;52.434;13.238;2022-08-07T17:18:32;101837.66;;;25.07;31.31
32330;BME280;18807;52.434;13.238;2022-08-07T17:26:16;101838.22;;;24.88;32.73
32330;BME280;18807;52.434;13.238;2022-08-07T17:34:11;101837.03;;;24.61;33.40
32330;BME280;18807;52.434;13.238;2022-08-07T17:42:10;101839.41;;;24.40;33.77
32330;BME280;18807;52.434;13.238;2022-08-07T17:49:52;101838.19;;;24.16;34.33
32330;BME280;18807;52.434;13.238;2022-08-07T17:57:32;101845.09;;;23.91;34.33
32330;BME280;18807;52.434;13.238;2022-08-07T18:05:35;101845.53;;;23.72;34.56
32330;BME280;18807;52.434;13.238;2022-08-07T18:13:50;101841.28;;;23.59;35.29
32330;BME280;18807;52.434;13.238;2022-08-07T18:21:35;101835.22;;;23.43;35.79
32330;BME280;18807;52.434;13.238;2022-08-07T18:29:35;101842.72;;;23.33;36.51
32330;BME280;18807;52.434;13.238;2022-08-07T18:37:44;101851.19;;;23.17;37.17
32330;BME280;18807;52.434;13.238;2022-08-07T18:45:46;101859.72;;;22.97;37.43
32330;BME280;18807;52.434;13.238;2022-08-07T18:53:51;101861.03;;;22.75;39.50
32330;BME280;18807;52.434;13.238;2022-08-07T19:01:37;101867.75;;;22.55;40.14
32330;BME280;18807;52.434;13.238;2022-08-07T19:09:52;101872.66;;;22.29;40.84
32330;BME280;18807;52.434;13.238;2022-08-07T19:17:40;101874.88;;;22.03;41.20
32330;BME280;18807;52.434;13.238;2022-08-07T19:25:35;101877.91;;;21.79;43.15
32330;BME280;18807;52.434;13.238;2022-08-07T19:33:31;101886.34;;;21.54;44.43
32330;BME280;18807;52.434;13.238;2022-08-07T19:41:10;101885.78;;;21.25;46.97
32330;BME280;18807;52.434;13.238;2022-08-07T19:48:48;101900.53;;;21.00;48.32
32330;BME280;18807;52.434;13.238;2022-08-07T19:56:28;101897.97;;;20.79;48.66
32330;BME280;18807;52.434;13.238;2022-08-07T20:04:24;101900.88;;;20.54;50.14
32330;BME280;18807;52.434;13.238;2022-08-07T20:12:11;101909.16;;;20.36;49.29
32330;BME280;18807;52.434;13.238;2022-08-07T20:20:05;101906.59;;;20.16;49.15
32330;BME280;18807;52.434;13.238;2022-08-07T20:27:43;101909.38;;;19.97;51.78
32330;BME280;18807;52.434;13.238;2022-08-07T20:35:19;101917.56;;;19.80;51.40
32330;BME280;18807;52.434;13.238;2022-08-07T20:43:01;101912.22;;;19.62;52.19
32330;BME280;18807;52.434;13.238;2022-08-07T20:50:41;101924.00;;;19.52;52.15
32330;BME280;18807;52.434;13.238;2022-08-07T20:58:17;101933.09;;;19.39;52.89
32330;BME280;18807;52.434;13.238;2022-08-07T21:06:02;101921.31;;;19.22;54.28
32330;BME280;18807;52.434;13.238;2022-08-07T21:14:04;101928.56;;;19.08;55.49
32330;BME280;18807;52.434;13.238;2022-08-07T21:22:03;101929.47;;;18.92;55.31
32330;BME280;18807;52.434;13.238;2022-08-07T21:29:46;101920.47;;;18.78;56.43
32330;BME280;18807;52.434;13.238;2022-08-07T21:37:27;101927.66;;;18.62;57.91
32330;BME280;18807;52.434;13.238;2022-08-07T21:45:28;101924.06;;;18.48;58.60
32330;BME280;18807;52.434;13.238;2022-08-07T21:53:30;101925.81;;;18.39;57.36
32330;BME280;18807;52.434;13.238;2022-08-07T22:01:34;101928.44;;;18.15;59.43
32330;BME280;18807;52.434;13.238;2022-08-07T22:09:32;101931.09;;;18.03;61.18
32330;BME280;18807;52.434;13.238;2022-08-07T22:17:32;101927.47;;;17.88;62.17
32330;BME280;18807;52.434;13.238;2022-08-07T22:25:11;101925.63;;;17.78;61.31
32330;BME280;18807;52.434;13.238;2022-08-07T22:32:59;101929.16;;;17.71;61.02
32330;BME280;18807;52.434;13.238;2022-08-07T22:40:42;101928.25;;;17.62;60.72
32330;BME280;18807;52.434;13.238;2022-08-07T22:48:32;101935.38;;;17.52;62.52
32330;BME280;18807;52.434;13.238;2022-08-07T22:56:39;101936.16;;;17.36;64.24
32330;BME280;18807;52.434;13.238;2022-08-07T23:04:34;101929.72;;;17.13;65.41
32330;BME280;18807;52.434;13.238;2022-08-07T23:12:50;101937.69;;;16.97;66.61
32330;BME280;18807;52.434;13.238;2022-08-07T23:20:43;101938.50;;;16.88;67.42
32330;BME280;18807;52.434;13.238;2022-08-07T23:28:48;101936.66;;;16.83;67.85
32330;BME280;18807;52.434;13.238;2022-08-07T23:36:37;101946.50;;;16.73;69.03
32330;BME280;18807;52.434;13.238;2022-08-07T23:44:39;101945.50;;;16.65;69.65
32330;BME280;18807;52.434;13.238;2022-08-07T23:52:26;101934.59;;;16.55;70.71
